Time;durP1;ratioP1;P1;durP2;ratioP2;P2;SDS_P1;SDS_P2;PMS_P1;PMS_P2;Temp;Humidity;BMP_temperature;BMP_pressure;BME280_temperature;BME280_humidity;BME280_pressure;Samples;Min_cycle;Max_cycle;Signal;HPM_P1;HPM_P2
2023/04/28 00:01:23;;;;;;;25.02;14.07;;;13.90;83.50;;;;;;4969887;28;20819;-81
2023/04/28 00:03:49;;;;;;;24.13;15.13;;;13.90;83.80;;;;;;4980157;28;20113;-81
2023/04/28 00:06:15;;;;;;;26.70;14.65;;;13.80;83.80;;;;;;4976517;28;20039;-80
2023/04/28 00:08:41;;;;;;;25.88;14.48;;;13.90;83.90;;;;;;4979014;28;20038;-80
2023/04/28 00:11:10;;;;;;;17.75;13.85;;;13.80;83.90;;;;;;4978090;28;20037;-81
2023/04/28 00:13:37;;;;;;;23.80;14.23;;;13.80;84.20;;;;;;4965021;28;20027;-81
2023/04/28 00:16:03;;;;;;;18.67;14.63;;;13.80;84.00;;;;;;4959664;28;20030;-80
2023/04/28 00:18:29;;;;;;;18.77;12.05;;;13.80;83.80;;;;;;4975578;28;20428;-80
2023/04/28 00:20:55;;;;;;;24.25;13.82;;;13.80;84.20;;;;;;4964384;28;20093;-81
2023/04/28 00:23:21;;;;;;;22.70;14.95;;;13.80;84.30;;;;;;4966228;28;20027;-81
2023/04/28 00:25:54;;;;;;;22.27;13.40;;;13.80;84.30;;;;;;4973124;28;20022;-81
2023/04/28 00:28:20;;;;;;;27.50;15.27;;;13.70;84.70;;;;;;4962533;28;20439;-81
2023/04/28 00:30:46;;;;;;;23.00;14.98;;;13.70;84.90;;;;;;4963451;28;20014;-81
2023/04/28 00:33:13;;;;;;;24.25;14.27;;;13.70;85.20;;;;;;4967686;28;20037;-81
2023/04/28 00:35:40;;;;;;;21.10;15.32;;;13.70;85.40;;;;;;4948777;28;20481;-81
2023/04/28 00:38:06;;;;;;;;;;;13.60;85.60;;;;;;4970847;28;20046;-81
2023/04/28 00:40:36;;;;;;;22.85;17.45;;;13.60;84.80;;;;;;4960660;28;19906;-80
2023/04/28 00:43:02;;;;;;;23.05;17.08;;;13.50;85.60;;;;;;4968861;28;20034;-81
2023/04/28 00:45:28;;;;;;;24.17;16.27;;;13.50;86.00;;;;;;4979559;28;20019;-81
2023/04/28 00:47:55;;;;;;;27.00;18.58;;;13.50;86.40;;;;;;4983808;28;20045;-80
2023/04/28 00:50:22;;;;;;;27.08;16.25;;;13.50;86.80;;;;;;4974838;28;20027;-81
2023/04/28 00:52:49;;;;;;;23.58;15.60;;;13.50;86.80;;;;;;4966533;28;20388;-80
2023/04/28 00:55:16;;;;;;;27.08;16.25;;;13.50;86.90;;;;;;4968737;28;20030;-80
2023/04/28 00:57:42;;;;;;;25.42;16.25;;;13.50;87.10;;;;;;4968396;28;20023;-81
2023/04/28 01:00:10;;;;;;;25.40;15.85;;;13.40;87.20;;;;;;4946543;28;20019;-79
2023/04/28 01:02:36;;;;;;;28.55;17.23;;;13.40;87.50;;;;;;4968418;28;20050;-80
2023/04/28 01:05:03;;;;;;;24.65;17.17;;;13.40;87.70;;;;;;4965210;28;20055;-81
2023/04/28 01:07:30;;;;;;;25.65;15.90;;;13.40;87.90;;;;;;4972252;28;20054;-81
2023/04/28 01:09:56;;;;;;;21.35;16.33;;;13.40;87.80;;;;;;4968078;28;20490;-80
2023/04/28 01:12:22;;;;;;;29.90;17.13;;;13.50;88.10;;;;;;4972569;28;20023;-81
2023/04/28 01:14:49;;;;;;;28.00;20.00;;;13.50;88.10;;;;;;4979976;28;20045;-81
2023/04/28 01:17:16;;;;;;;21.27;16.08;;;13.50;88.10;;;;;;4974233;28;20061;-79
2023/04/28 01:19:42;;;;;;;18.67;15.23;;;13.40;88.00;;;;;;4958098;28;20023;-78
2023/04/28 01:22:12;;;;;;;23.02;15.07;;;13.50;87.90;;;;;;4980713;28;20029;-80
2023/04/28 01:24:38;;;;;;;20.75;15.80;;;13.50;87.70;;;;;;4956923;28;20664;-81
2023/04/28 01:27:05;;;;;;;24.85;16.20;;;13.40;88.10;;;;;;4955861;28;20458;-80
2023/04/28 01:29:30;;;;;;;18.80;15.00;;;13.50;87.60;;;;;;4963553;28;20096;-79
2023/04/28 01:31:56;;;;;;;22.83;15.93;;;13.50;87.60;;;;;;4954610;28;20086;-80
2023/04/28 01:34:22;;;;;;;19.63;16.63;;;13.50;87.80;;;;;;4957691;28;20033;-80
2023/04/28 01:36:48;;;;;;;24.48;16.33;;;13.50;87.90;;;;;;4956416;28;20023;-79
2023/04/28 01:39:14;;;;;;;19.75;16.40;;;13.40;87.90;;;;;;4971341;28;20026;-80
2023/04/28 01:41:40;;;;;;;25.45;16.85;;;13.50;87.90;;;;;;4967131;28;20028;-80
2023/04/28 01:44:06;;;;;;;20.27;15.30;;;13.50;88.10;;;;;;4970456;28;20094;-79
2023/04/28 01:46:32;;;;;;;27.00;17.77;;;13.40;88.10;;;;;;4966277;28;20029;-79
2023/04/28 01:48:59;;;;;;;22.55;16.02;;;13.40;88.20;;;;;;4968675;28;20090;-79
2023/04/28 01:51:25;;;;;;;21.77;16.63;;;13.50;88.20;;;;;;4971584;28;20019;-82
2023/04/28 01:53:52;;;;;;;22.48;15.98;;;13.50;88.30;;;;;;4974027;28;20023;-82
2023/04/28 01:56:17;;;;;;;25.15;17.13;;;13.50;88.20;;;;;;4959675;28;20077;-81
2023/04/28 01:58:43;;;;;;;25.48;16.38;;;13.50;88.20;;;;;;4972496;28;20026;-81
2023/04/28 02:01:10;;;;;;;22.85;15.77;;;13.50;88.10;;;;;;4976487;28;20023;-80
2023/04/28 02:03:36;;;;;;;21.80;16.35;;;13.50;88.10;;;;;;4980503;28;20105;-81
2023/04/28 02:06:02;;;;;;;24.20;16.27;;;13.50;88.00;;;;;;4956652;28;20504;-80
2023/04/28 02:08:28;;;;;;;19.73;15.30;;;13.50;88.10;;;;;;4970127;28;20031;-81
2023/04/28 02:10:53;;;;;;;22.40;16.60;;;13.50;88.00;;;;;;4967418;28;20086;-83
2023/04/28 02:13:19;;;;;;;26.65;17.42;;;13.50;88.30;;;;;;4975960;28;20030;-81
2023/04/28 02:15:45;;;;;;;17.65;15.43;;;13.60;88.30;;;;;;4975779;28;20097;-81
2023/04/28 02:18:11;;;;;;;29.98;15.98;;;13.50;88.20;;;;;;4962922;28;20038;-81
2023/04/28 02:20:37;;;;;;;21.73;16.10;;;13.50;88.20;;;;;;4970148;28;20027;-82
2023/04/28 02:23:03;;;;;;;20.10;15.15;;;13.50;88.10;;;;;;4981456;28;20034;-79
2023/04/28 02:25:29;;;;;;;27.30;15.95;;;13.50;88.00;;;;;;4969026;28;20036;-79
2023/04/28 02:27:55;;;;;;;19.10;15.65;;;13.60;87.90;;;;;;4964263;28;20034;-80
2023/04/28 02:30:20;;;;;;;21.30;15.32;;;13.60;88.00;;;;;;4974614;28;20035;-80
2023/04/28 02:32:47;;;;;;;20.67;15.85;;;13.60;88.10;;;;;;4967639;28;20073;-80
2023/04/28 02:35:13;;;;;;;19.80;14.60;;;13.70;87.90;;;;;;4973401;28;20031;-80
2023/04/28 02:37:39;;;;;;;20.15;14.35;;;13.70;87.70;;;;;;4988803;28;20023;-80
2023/04/28 02:40:06;;;;;;;24.70;15.05;;;13.60;87.70;;;;;;4985973;28;20033;-81
2023/04/28 02:42:32;;;;;;;26.30;17.85;;;13.60;87.60;;;;;;4962984;28;20047;-81
2023/04/28 02:44:58;;;;;;;24.45;16.27;;;13.70;87.70;;;;;;4954320;28;20050;-79
2023/04/28 02:47:24;;;;;;;17.58;15.32;;;13.70;87.90;;;;;;4961076;28;20043;-81
2023/04/28 02:49:49;;;;;;;23.92;15.55;;;13.70;87.70;;;;;;4972421;28;20023;-83
2023/04/28 02:52:15;;;;;;;18.63;15.65;;;13.70;87.60;;;;;;4976650;28;20023;-80
2023/04/28 02:54:41;;;;;;;23.35;16.23;;;13.80;87.90;;;;;;4964951;28;20480;-81
2023/04/28 02:57:07;;;;;;;22.52;15.23;;;13.80;87.90;;;;;;4967575;28;20023;-81
2023/04/28 02:59:34;;;;;;;19.90;15.98;;;13.80;87.70;;;;;;4962399;28;20053;-81
2023/04/28 03:02:00;;;;;;;17.73;15.60;;;13.80;87.60;;;;;;4960370;28;20023;-81
2023/04/28 03:04:26;;;;;;;20.77;15.82;;;13.80;87.40;;;;;;4962530;28;20029;-81
2023/04/28 03:06:52;;;;;;;19.38;15.60;;;13.80;87.70;;;;;;4965012;28;20102;-79
2023/04/28 03:09:18;;;;;;;20.55;16.25;;;13.80;87.80;;;;;;4976403;28;20039;-82
2023/04/28 03:11:44;;;;;;;26.77;17.52;;;13.90;87.60;;;;;;4975961;28;20081;-82
2023/04/28 03:14:10;;;;;;;25.95;16.65;;;13.90;87.40;;;;;;4966702;28;20039;-81
2023/04/28 03:16:36;;;;;;;18.75;15.60;;;13.90;87.50;;;;;;4976327;28;20022;-81
2023/04/28 03:19:02;;;;;;;22.23;16.15;;;14.00;87.50;;;;;;4959764;28;20092;-82
2023/04/28 03:21:28;;;;;;;25.17;16.52;;;14.00;87.50;;;;;;4963617;28;20127;-81
2023/04/28 03:23:54;;;;;;;23.10;16.98;;;14.00;87.30;;;;;;4966022;28;20483;-82
2023/04/28 03:26:21;;;;;;;37.90;23.05;;;14.00;87.30;;;;;;4959868;28;20155;-82
2023/04/28 03:28:46;;;;;;;24.02;16.48;;;14.00;87.60;;;;;;4960175;28;20030;-81
2023/04/28 03:31:12;;;;;;;24.35;16.92;;;14.00;87.50;;;;;;4961243;28;20027;-82
2023/04/28 03:33:38;;;;;;;19.17;13.50;;;14.00;87.20;;;;;;4974513;28;20038;-82
2023/04/28 03:36:04;;;;;;;22.23;16.90;;;14.00;87.20;;;;;;4961412;28;20117;-81
2023/04/28 03:38:30;;;;;;;24.90;16.05;;;13.90;87.70;;;;;;4962132;28;20537;-81
2023/04/28 03:40:56;;;;;;;24.02;16.77;;;13.90;88.00;;;;;;4978476;28;20023;-82
2023/04/28 03:43:22;;;;;;;22.48;17.92;;;13.80;87.90;;;;;;4951006;28;20118;-82
2023/04/28 03:45:48;;;;;;;21.65;14.98;;;13.80;88.10;;;;;;4965733;28;20026;-81
2023/04/28 03:48:14;;;;;;;19.27;15.57;;;13.90;88.00;;;;;;4978307;28;20078;-82
2023/04/28 03:50:41;;;;;;;23.83;16.02;;;13.90;87.90;;;;;;4978376;28;20109;-82
2023/04/28 03:53:07;;;;;;;16.27;13.27;;;14.00;88.10;;;;;;4979215;28;20027;-82
2023/04/28 03:55:33;;;;;;;15.02;11.85;;;14.00;87.80;;;;;;4988313;28;20058;-82
2023/04/28 03:57:58;;;;;;;20.98;14.10;;;14.00;87.70;;;;;;4981386;28;20027;-83
2023/04/28 04:00:24;;;;;;;17.70;13.07;;;13.80;88.30;;;;;;4973164;28;20015;-80
2023/04/28 04:02:50;;;;;;;16.67;13.20;;;13.80;88.50;;;;;;4973780;28;20031;-80
2023/04/28 04:05:16;;;;;;;20.08;14.65;;;13.90;88.50;;;;;;4972867;28;20038;-81
2023/04/28 04:07:42;;;;;;;21.27;15.40;;;13.90;88.50;;;;;;4973341;28;20034;-83
2023/04/28 04:10:08;;;;;;;16.75;14.10;;;14.10;88.40;;;;;;4962843;28;20750;-82
2023/04/28 04:12:34;;;;;;;19.90;14.38;;;14.20;87.40;;;;;;4975858;28;20054;-81
2023/04/28 04:15:00;;;;;;;24.35;14.43;;;14.20;87.50;;;;;;4969564;28;20555;-81
2023/04/28 04:17:26;;;;;;;16.95;12.60;;;14.40;87.40;;;;;;4972704;28;20023;-82
2023/04/28 04:19:51;;;;;;;17.50;13.65;;;14.40;86.80;;;;;;4956597;28;20023;-82
2023/04/28 04:22:17;;;;;;;14.40;11.82;;;14.40;86.80;;;;;;4953797;29;20023;-82
2023/04/28 04:24:43;;;;;;;15.82;12.75;;;14.40;86.80;;;;;;4958016;28;20015;-82
2023/04/28 04:27:09;;;;;;;17.10;13.77;;;14.20;87.00;;;;;;4953600;28;20033;-82
2023/04/28 04:29:36;;;;;;;14.55;13.07;;;14.30;87.60;;;;;;4975986;28;20023;-82
2023/04/28 04:32:01;;;;;;;17.73;13.10;;;14.40;87.00;;;;;;4973843;28;20041;-82
2023/04/28 04:34:28;;;;;;;20.42;12.10;;;14.50;86.80;;;;;;4967083;28;20023;-82
2023/04/28 04:36:53;;;;;;;16.73;12.32;;;14.50;86.40;;;;;;4964879;28;20058;-83
2023/04/28 04:39:19;;;;;;;15.82;12.88;;;14.50;86.70;;;;;;4971788;28;20477;-82
2023/04/28 04:41:45;;;;;;;14.05;11.77;;;14.40;86.90;;;;;;4961097;28;20037;-84
2023/04/28 04:44:11;;;;;;;15.52;13.30;;;14.40;87.40;;;;;;4974273;28;20020;-83
2023/04/28 04:46:38;;;;;;;18.10;13.20;;;14.40;87.80;;;;;;4970766;28;20027;-83
2023/04/28 04:49:03;;;;;;;15.43;12.50;;;14.40;87.90;;;;;;4965728;28;20070;-84
2023/04/28 04:51:29;;;;;;;17.50;12.50;;;14.40;87.80;;;;;;4975135;28;20054;-84
2023/04/28 04:53:55;;;;;;;12.40;11.20;;;14.40;88.40;;;;;;4975440;28;20023;-84
2023/04/28 04:56:21;;;;;;;13.45;11.27;;;14.30;88.40;;;;;;4964037;28;20030;-84
2023/04/28 04:58:47;;;;;;;15.30;12.15;;;14.30;88.60;;;;;;4965719;28;20427;-84
2023/04/28 05:01:13;;;;;;;14.50;12.77;;;14.40;88.90;;;;;;4964048;28;20026;-84
2023/04/28 05:03:39;;;;;;;17.77;12.68;;;14.40;88.80;;;;;;4965776;28;20144;-84
2023/04/28 05:06:05;;;;;;;12.68;9.65;;;14.50;89.00;;;;;;4973536;28;20508;-83
2023/04/28 05:08:31;;;;;;;15.43;11.43;;;14.50;88.40;;;;;;4972752;28;20036;-83
2023/04/28 05:10:56;;;;;;;15.52;11.85;;;14.40;88.70;;;;;;4965435;28;20152;-82
2023/04/28 05:13:22;;;;;;;14.95;11.93;;;14.30;89.40;;;;;;4969944;28;20034;-81
2023/04/28 05:15:48;;;;;;;16.17;11.68;;;14.60;89.30;;;;;;4956478;28;20055;-82
2023/04/28 05:18:14;;;;;;;17.10;11.90;;;14.80;88.60;;;;;;4958279;28;20114;-81
2023/04/28 05:20:40;;;;;;;18.73;11.68;;;15.10;87.50;;;;;;4959969;28;20416;-81
2023/04/28 05:23:06;;;;;;;18.10;11.60;;;15.30;86.80;;;;;;4970935;28;20054;-79
2023/04/28 05:25:32;;;;;;;18.98;11.70;;;15.40;86.20;;;;;;4969090;28;20086;-81
2023/04/28 05:28:03;;;;;;;16.83;11.65;;;15.50;85.90;;;;;;4961592;28;20133;-81
2023/04/28 05:30:29;;;;;;;15.05;10.52;;;15.50;85.70;;;;;;4975816;28;20030;-84
2023/04/28 05:32:55;;;;;;;16.42;10.90;;;15.50;85.70;;;;;;4973350;28;20727;-80
2023/04/28 05:35:21;;;;;;;16.42;11.38;;;15.40;86.10;;;;;;4974036;28;20019;-82
2023/04/28 05:37:47;;;;;;;21.30;12.40;;;15.20;86.30;;;;;;4972241;28;20034;-83
2023/04/28 05:40:13;;;;;;;15.65;11.80;;;15.10;87.10;;;;;;4975051;28;20034;-83
2023/04/28 05:42:39;;;;;;;12.85;10.88;;;15.00;87.50;;;;;;4971234;28;20066;-81
2023/04/28 05:45:05;;;;;;;13.73;10.90;;;14.90;87.90;;;;;;4974411;28;20101;-82
2023/04/28 05:47:31;;;;;;;17.52;13.73;;;14.80;88.20;;;;;;4975588;28;20824;-82
2023/04/28 05:49:57;;;;;;;16.45;10.40;;;14.80;88.40;;;;;;4981505;28;20031;-82
2023/04/28 05:52:23;;;;;;;17.45;12.48;;;14.80;88.40;;;;;;4984225;28;20078;-85
2023/04/28 05:54:49;;;;;;;19.17;12.30;;;14.90;88.60;;;;;;4955257;28;20023;-83
2023/04/28 05:57:15;;;;;;;17.90;13.57;;;15.10;88.60;;;;;;4952130;28;20496;-81
2023/04/28 05:59:41;;;;;;;20.98;14.15;;;15.40;88.20;;;;;;4965530;28;20023;-82
2023/04/28 06:02:07;;;;;;;22.02;14.63;;;15.80;87.20;;;;;;4971638;28;20023;-82
2023/04/28 06:04:33;;;;;;;21.02;14.90;;;16.00;86.10;;;;;;4973490;28;20098;-83
2023/04/28 06:06:58;;;;;;;18.95;14.73;;;16.10;85.30;;;;;;4954657;28;20157;-80
2023/04/28 06:09:24;;;;;;;20.42;15.15;;;16.00;85.20;;;;;;4946144;28;20045;-81
2023/04/28 06:11:50;;;;;;;23.50;16.08;;;16.00;85.20;;;;;;4960226;28;20110;-83
2023/04/28 06:14:16;;;;;;;26.55;14.80;;;16.00;85.40;;;;;;4954392;28;20493;-82
2023/04/28 06:16:42;;;;;;;24.80;14.55;;;16.10;85.00;;;;;;4960579;28;20054;-84
2023/04/28 06:19:08;;;;;;;18.23;13.60;;;16.20;84.90;;;;;;4961177;28;20023;-84
2023/04/28 06:21:34;;;;;;;18.90;12.25;;;16.30;84.40;;;;;;4946516;28;20039;-81
2023/04/28 06:24:01;;;;;;;21.45;12.43;;;16.30;84.00;;;;;;4963208;28;20032;-85
2023/04/28 06:26:27;;;;;;;18.48;14.65;;;16.30;84.00;;;;;;4945552;28;20035;-83
2023/04/28 06:28:53;;;;;;;14.48;10.45;;;16.30;84.10;;;;;;4970565;28;20046;-81
2023/04/28 06:31:18;;;;;;;18.00;11.48;;;16.40;84.10;;;;;;4962537;28;20023;-81
2023/04/28 06:33:44;;;;;;;21.08;13.23;;;16.30;84.40;;;;;;4980230;28;20041;-80
2023/04/28 06:36:12;;;;;;;26.27;13.02;;;16.20;85.00;;;;;;4971699;28;20026;-86
2023/04/28 06:38:40;;;;;;;28.30;12.48;;;16.30;85.20;;;;;;4975724;28;20082;-85
2023/04/28 06:41:05;;;;;;;31.17;14.80;;;16.30;85.80;;;;;;4970056;28;20168;-84
2023/04/28 06:43:32;;;;;;;20.05;12.63;;;16.10;87.40;;;;;;4973547;28;20163;-84
2023/04/28 06:45:58;;;;;;;24.88;12.45;;;16.00;88.30;;;;;;4973104;28;20014;-83
2023/04/28 06:48:24;;;;;;;15.57;12.32;;;16.00;88.70;;;;;;4958352;28;20465;-82
2023/04/28 06:50:50;;;;;;;15.80;8.50;;;16.00;89.10;;;;;;4974284;28;20034;-83
2023/04/28 06:53:16;;;;;;;13.82;8.05;;;15.90;89.60;;;;;;4975851;28;20038;-83
2023/04/28 06:55:42;;;;;;;12.07;7.95;;;15.70;90.30;;;;;;4975832;28;20050;-83
2023/04/28 06:58:08;;;;;;;9.32;7.00;;;15.80;90.30;;;;;;4976222;28;20023;-80
2023/04/28 07:00:34;;;;;;;10.68;7.43;;;15.90;90.30;;;;;;4958201;28;20034;-79
2023/04/28 07:03:00;;;;;;;9.32;7.63;;;16.00;90.20;;;;;;4973865;28;20074;-80
2023/04/28 07:05:27;;;;;;;12.63;10.60;;;16.20;90.10;;;;;;4975436;28;20047;-78
2023/04/28 07:07:55;;;;;;;10.30;8.77;;;16.70;90.10;;;;;;4958303;28;20195;-79
2023/04/28 07:10:20;;;;;;;10.50;8.50;;;17.00;88.20;;;;;;4945564;28;20039;-80
2023/04/28 07:12:47;;;;;;;10.25;7.43;;;17.10;87.30;;;;;;4969285;28;20391;-78
2023/04/28 07:15:12;;;;;;;15.35;9.50;;;17.10;87.00;;;;;;4970541;28;20026;-81
2023/04/28 07:17:38;;;;;;;10.05;7.97;;;16.90;87.50;;;;;;4976468;28;20019;-81
2023/04/28 07:20:05;;;;;;;15.73;8.10;;;16.80;87.70;;;;;;4975086;28;20400;-78
2023/04/28 07:22:31;;;;;;;8.93;7.70;;;16.90;87.60;;;;;;4971383;28;20027;-80
2023/04/28 07:24:57;;;;;;;9.70;8.30;;;16.70;87.40;;;;;;4974240;28;20037;-79
2023/04/28 07:27:24;;;;;;;12.93;9.68;;;16.30;88.30;;;;;;4971780;28;20089;-80
2023/04/28 07:29:50;;;;;;;10.32;8.38;;;16.20;89.60;;;;;;4956562;28;20034;-78
2023/04/28 07:32:16;;;;;;;11.77;8.77;;;16.30;89.70;;;;;;4970951;28;20390;-79
2023/04/28 07:34:42;;;;;;;10.70;7.97;;;16.30;89.70;;;;;;4940359;28;20113;-78
2023/04/28 07:37:10;;;;;;;11.63;8.23;;;16.40;89.70;;;;;;4959271;28;20058;-79
2023/04/28 07:39:38;;;;;;;14.70;8.75;;;16.30;89.50;;;;;;4965641;28;20023;-80
2023/04/28 07:42:04;;;;;;;14.95;8.88;;;16.10;90.10;;;;;;4973022;28;20029;-79
2023/04/28 07:44:30;;;;;;;12.43;8.60;;;16.10;90.60;;;;;;4968435;28;20027;-78
2023/04/28 07:46:56;;;;;;;13.40;10.07;;;15.90;91.30;;;;;;4971595;28;20023;-79
2023/04/28 07:49:22;;;;;;;14.45;9.38;;;15.80;92.00;;;;;;4956217;28;20031;-78
2023/04/28 07:51:48;;;;;;;11.02;9.68;;;16.00;92.30;;;;;;4969277;28;20015;-79
2023/04/28 07:54:14;;;;;;;15.57;10.98;;;16.40;92.50;;;;;;4964010;28;20085;-81
2023/04/28 07:56:40;;;;;;;12.63;9.68;;;17.30;92.00;;;;;;4946234;28;20023;-80
2023/04/28 07:59:06;;;;;;;13.25;10.77;;;17.80;90.10;;;;;;4970582;28;20039;-79
2023/04/28 08:01:32;;;;;;;12.48;9.38;;;18.20;89.50;;;;;;4964810;28;20113;-80
2023/04/28 08:03:58;;;;;;;10.93;8.98;;;19.90;87.10;;;;;;4966038;28;20495;-79
2023/04/28 08:06:24;;;;;;;10.48;7.65;;;22.30;80.10;;;;;;4963331;28;20035;-82
2023/04/28 08:08:50;;;;;;;12.90;9.52;;;24.00;70.40;;;;;;4976019;28;20035;-81
2023/04/28 08:11:16;;;;;;;11.75;8.95;;;23.80;67.60;;;;;;4975849;28;20102;-79
2023/04/28 08:13:42;;;;;;;11.07;8.82;;;22.90;68.30;;;;;;4974277;28;20114;-79
2023/04/28 08:16:08;;;;;;;12.30;9.55;;;22.00;71.40;;;;;;4974887;28;20031;-80
2023/04/28 08:18:33;;;;;;;11.68;8.50;;;21.10;73.50;;;;;;4974788;28;20531;-81
2023/04/28 08:20:59;;;;;;;10.00;8.45;;;20.20;74.90;;;;;;4974849;28;20205;-81
2023/04/28 08:23:30;;;;;;;12.57;8.90;;;19.10;78.30;;;;;;4955948;28;20027;-79
2023/04/28 08:25:57;;;;;;;11.23;9.43;;;18.60;80.50;;;;;;4974877;28;20023;-80
2023/04/28 08:28:22;;;;;;;14.80;10.77;;;18.00;81.80;;;;;;4974666;28;20034;-79
2023/04/28 08:30:48;;;;;;;14.82;11.30;;;17.20;86.60;;;;;;4974554;28;20023;-80
2023/04/28 08:33:14;;;;;;;16.83;13.73;;;15.30;92.40;;;;;;4975356;28;20034;-81
2023/04/28 08:35:40;;;;;;;20.75;15.30;;;15.20;93.70;;;;;;4956454;28;20027;-78
2023/04/28 08:38:07;;;;;;;18.33;13.88;;;15.00;95.20;;;;;;4985988;28;20035;-77
2023/04/28 08:40:33;;;;;;;18.58;16.08;;;15.00;95.90;;;;;;4973440;28;20022;-79
2023/04/28 08:43:01;;;;;;;17.02;15.20;;;14.90;96.50;;;;;;4972323;28;20472;-79
2023/04/28 08:45:30;;;;;;;16.42;14.20;;;14.90;97.00;;;;;;4970197;28;20026;-80
2023/04/28 08:47:58;;;;;;;18.13;14.63;;;14.70;97.20;;;;;;4952694;28;20066;-79
2023/04/28 08:50:27;;;;;;;22.17;14.65;;;14.70;97.70;;;;;;4970251;28;20026;-78
2023/04/28 08:52:55;;;;;;;20.80;18.52;;;14.70;98.30;;;;;;4969594;28;20468;-80
2023/04/28 08:55:22;;;;;;;17.90;15.82;;;14.70;98.70;;;;;;4963401;28;20094;-80
2023/04/28 08:57:52;;;;;;;15.27;12.35;;;14.70;98.90;;;;;;4960118;28;20023;-80
2023/04/28 09:00:18;;;;;;;18.38;13.63;;;14.50;98.50;;;;;;4957734;28;20057;-79
2023/04/28 09:02:44;;;;;;;14.30;12.73;;;14.30;99.00;;;;;;4942431;28;20502;-80
2023/04/28 09:05:12;;;;;;;18.73;15.73;;;14.10;99.50;;;;;;4957412;28;20051;-79
2023/04/28 09:07:38;;;;;;;20.13;17.15;;;13.80;99.90;;;;;;4967221;28;20046;-79
2023/04/28 09:10:25;;;;;;;18.75;16.85;;;13.70;99.90;;;;;;4974144;28;20106;-80
2023/04/28 09:12:53;;;;;;;17.88;16.02;;;13.70;99.90;;;;;;4973873;28;20529;-79
2023/04/28 09:15:45;;;;;;;17.40;14.05;;;13.70;99.90;;;;;;4973692;28;20532;-79
2023/04/28 09:18:14;;;;;;;21.95;16.38;;;13.90;99.90;;;;;;4983761;28;20069;-79
2023/04/28 09:20:40;;;;;;;23.35;19.63;;;14.10;99.90;;;;;;4971720;28;20536;-80
2023/04/28 09:23:20;;;;;;;18.08;16.23;;;14.50;99.90;;;;;;4971511;28;20030;-79
2023/04/28 09:26:00;;;;;;;19.90;17.75;;;15.40;99.90;;;;;;4970450;28;20111;-79
2023/04/28 09:28:27;;;;;;;15.95;13.68;;;15.80;99.90;;;;;;4970826;28;20038;-79
2023/04/28 09:30:53;;;;;;;13.93;12.50;;;15.80;99.90;;;;;;4967545;28;20023;-81
2023/04/28 09:33:20;;;;;;;18.23;16.05;;;15.40;99.90;;;;;;4970966;28;20506;-81
2023/04/28 09:35:47;;;;;;;18.58;15.50;;;15.40;99.90;;;;;;4968767;28;20019;-80
2023/04/28 09:38:14;;;;;;;19.73;15.00;;;15.80;99.90;;;;;;4981721;28;20022;-78
2023/04/28 09:40:56;;;;;;;15.83;14.20;;;16.30;99.90;;;;;;4974193;28;20026;-78
2023/04/28 09:43:24;;;;;;;18.38;16.58;;;16.30;99.60;;;;;;4943486;28;20279;-79
2023/04/28 09:45:51;;;;;;;17.58;15.77;;;16.40;99.40;;;;;;4955613;28;20023;-83
2023/04/28 09:48:17;;;;;;;15.70;14.17;;;16.80;98.60;;;;;;4970805;28;20488;-82
2023/04/28 09:50:44;;;;;;;16.50;13.60;;;16.70;97.50;;;;;;4955345;28;20050;-77
2023/04/28 09:53:12;;;;;;;20.38;17.38;;;16.50;96.90;;;;;;4947533;28;20039;-80
2023/04/28 09:55:42;;;;;;;17.20;15.50;;;16.20;97.40;;;;;;4959811;28;20101;-81
2023/04/28 09:58:10;;;;;;;16.70;15.00;;;16.20;98.00;;;;;;4967529;28;20022;-78
2023/04/28 10:00:38;;;;;;;;;;;16.20;97.80;;;;;;4965954;28;20019;-77
2023/04/28 10:03:04;;;;;;;16.42;14.60;;;16.20;97.50;;;;;;4961991;28;19906;-79
2023/04/28 10:05:31;;;;;;;17.92;16.05;;;16.20;97.50;;;;;;4963434;28;20050;-79
2023/04/28 10:07:59;;;;;;;19.35;17.45;;;16.10;97.70;;;;;;4969170;28;20042;-80
2023/04/28 10:10:27;;;;;;;18.02;16.20;;;16.00;97.80;;;;;;4973143;28;20102;-80
2023/04/28 10:12:53;;;;;;;17.35;15.38;;;16.00;98.10;;;;;;4973216;28;20023;-78
2023/04/28 10:15:20;;;;;;;18.38;16.50;;;16.20;97.90;;;;;;4973084;28;20471;-79
2023/04/28 10:17:47;;;;;;;17.63;15.95;;;16.50;97.80;;;;;;4973053;28;20019;-79
2023/04/28 10:20:15;;;;;;;;;;;16.60;96.60;;;;;;4966022;28;20055;-80
2023/04/28 10:22:49;;;;;;;;;;;16.80;96.70;;;;;;4964498;28;19911;-78
2023/04/28 10:25:27;;;;;;;14.48;13.00;;;17.10;96.40;;;;;;4948453;28;19910;-80
2023/04/28 10:27:53;;;;;;;15.02;13.48;;;17.20;94.40;;;;;;4959178;28;20042;-79
2023/04/28 10:30:22;;;;;;;14.88;12.95;;;17.40;94.20;;;;;;4963810;28;20018;-81
2023/04/28 10:33:08;;;;;;;16.02;14.38;;;17.60;92.90;;;;;;4958711;28;20027;-80
2023/04/28 10:35:36;;;;;;;18.70;16.80;;;17.40;93.40;;;;;;4963636;28;20031;-79
2023/04/28 10:38:22;;;;;;;16.20;14.57;;;17.70;93.70;;;;;;4967243;28;20485;-78
2023/04/28 10:40:49;;;;;;;15.35;13.73;;;17.90;92.90;;;;;;4964280;28;20015;-80
2023/04/28 10:43:25;;;;;;;16.27;14.57;;;18.20;92.40;;;;;;4957339;28;20035;-78
2023/04/28 10:45:51;;;;;;;17.73;15.82;;;18.30;91.80;;;;;;4966565;28;20023;-80
2023/04/28 10:48:20;;;;;;;17.02;14.60;;;17.90;91.80;;;;;;4962721;28;20035;-79
2023/04/28 10:51:13;;;;;;;15.60;14.10;;;17.60;92.00;;;;;;4966239;28;20023;-80
2023/04/28 10:53:44;;;;;;;13.52;12.07;;;17.40;92.60;;;;;;4969113;28;20030;-80
2023/04/28 10:56:26;;;;;;;12.60;11.40;;;17.20;92.40;;;;;;4969851;28;20023;-77
2023/04/28 10:58:56;;;;;;;13.68;12.32;;;16.70;92.30;;;;;;4971197;28;20027;-79
2023/04/28 11:01:26;;;;;;;15.00;13.48;;;16.50;92.80;;;;;;4955224;28;20030;-80
2023/04/28 11:03:59;;;;;;;14.50;13.00;;;16.30;93.40;;;;;;4971091;28;20027;-80
2023/04/28 11:06:33;;;;;;;15.75;14.15;;;16.20;93.80;;;;;;4970045;28;21357;-80
2023/04/28 11:09:14;;;;;;;14.93;13.48;;;16.00;94.20;;;;;;4976172;28;20234;-80
2023/04/28 11:12:00;;;;;;;15.13;13.50;;;15.70;94.40;;;;;;4976070;28;20041;-80
2023/04/28 11:14:34;;;;;;;16.08;14.48;;;15.40;95.40;;;;;;4959117;28;20032;-82
2023/04/28 11:17:08;;;;;;;18.58;15.60;;;15.10;95.90;;;;;;4979797;28;20026;-80
2023/04/28 11:19:41;;;;;;;16.85;15.25;;;15.00;96.70;;;;;;4985631;28;20050;-80
2023/04/28 11:22:14;;;;;;;20.15;16.83;;;15.00;97.10;;;;;;4977056;28;20369;-81
2023/04/28 11:24:40;;;;;;;18.20;16.27;;;15.00;97.50;;;;;;4977601;28;20495;-79
2023/04/28 11:27:07;;;;;;;18.52;16.50;;;14.90;97.70;;;;;;4977601;28;20388;-79
2023/04/28 11:29:34;;;;;;;16.90;15.23;;;14.90;98.10;;;;;;4976785;28;20038;-80
2023/04/28 11:32:01;;;;;;;;;;;14.80;98.20;;;;;;4978522;28;20026;-78
2023/04/28 11:34:27;;;;;;;18.80;15.00;;;14.80;97.70;;;;;;4980336;28;19910;-84
2023/04/28 11:36:53;;;;;;;15.50;13.60;;;14.80;98.20;;;;;;4979314;28;20030;-83
2023/04/28 11:39:27;;;;;;;17.13;15.32;;;14.90;98.30;;;;;;4949093;28;20069;-86
2023/04/28 11:41:53;;;;;;;20.73;15.65;;;15.10;98.30;;;;;;4996598;28;20022;-81
2023/04/28 11:44:27;;;;;;;17.40;15.50;;;15.40;98.50;;;;;;4956208;28;20042;-82
2023/04/28 11:47:01;;;;;;;16.52;14.45;;;15.80;98.20;;;;;;4948761;28;20113;-81
2023/04/28 11:49:28;;;;;;;19.25;15.88;;;16.00;97.80;;;;;;4972368;28;20113;-82
2023/04/28 11:51:55;;;;;;;19.77;14.87;;;16.30;97.00;;;;;;4967879;28;20033;-80
2023/04/28 11:54:26;;;;;;;17.15;15.13;;;16.50;96.40;;;;;;4948822;28;20297;-81
2023/04/28 11:56:54;;;;;;;16.33;14.63;;;16.60;95.70;;;;;;4965234;28;20110;-81
2023/04/28 11:59:25;;;;;;;14.20;12.52;;;16.70;94.80;;;;;;4966419;28;20041;-81
2023/04/28 12:01:53;;;;;;;16.52;14.38;;;16.70;94.70;;;;;;4956310;28;20094;-81
2023/04/28 12:04:34;;;;;;;16.45;13.05;;;16.90;94.60;;;;;;4955852;28;20034;-79
2023/04/28 12:07:01;;;;;;;19.55;12.75;;;17.10;94.30;;;;;;4960667;28;20030;-81
2023/04/28 12:09:27;;;;;;;13.38;11.98;;;17.10;93.70;;;;;;4975013;28;20030;-80
2023/04/28 12:11:56;;;;;;;13.57;12.20;;;17.00;93.30;;;;;;4969713;28;20085;-81
2023/04/28 12:14:22;;;;;;;14.15;12.55;;;16.80;93.40;;;;;;4965137;28;20027;-82
2023/04/28 12:16:49;;;;;;;16.35;13.85;;;16.70;93.60;;;;;;4976119;28;20027;-80
2023/04/28 12:19:16;;;;;;;15.82;14.25;;;16.50;93.70;;;;;;4965853;28;20039;-81
2023/04/28 12:21:42;;;;;;;17.83;15.27;;;16.40;94.20;;;;;;4969658;28;20040;-84
2023/04/28 12:24:20;;;;;;;16.70;14.93;;;16.40;94.30;;;;;;4965001;28;20035;-80
2023/04/28 12:26:46;;;;;;;;;;;16.30;94.10;;;;;;4970117;28;20023;-79
2023/04/28 12:29:38;;;;;;;16.92;15.13;;;16.20;94.00;;;;;;4964024;28;20372;-84
2023/04/28 12:32:05;;;;;;;20.23;17.20;;;16.00;94.60;;;;;;4979899;28;20449;-82